createdAt,value
2023-03-12T00:01:59.714Z,17.00
2023-03-12T00:04:26.845Z,17.23
2023-03-12T00:06:53.913Z,17.33
2023-03-12T00:09:20.497Z,17.17
2023-03-12T00:11:47.170Z,16.38
2023-03-12T00:14:13.760Z,15.05
2023-03-12T00:16:40.604Z,14.10
2023-03-12T00:19:07.214Z,13.98
2023-03-12T00:21:33.845Z,15.40
2023-03-12T00:24:00.401Z,16.02
2023-03-12T00:26:26.969Z,16.42
2023-03-12T00:28:53.841Z,17.52
2023-03-12T00:31:24.117Z,17.05
2023-03-12T00:33:50.776Z,19.63
2023-03-12T00:36:19.588Z,18.27
2023-03-12T00:38:46.186Z,17.23
2023-03-12T00:41:13.069Z,17.67
2023-03-12T00:43:39.713Z,17.08
2023-03-12T00:46:06.331Z,14.52
2023-03-12T00:48:32.968Z,14.50
2023-03-12T00:50:59.587Z,14.82
2023-03-12T00:53:26.312Z,16.23
2023-03-12T00:55:52.929Z,14.07
2023-03-12T00:58:19.516Z,14.32
2023-03-12T01:00:46.182Z,14.48
2023-03-12T01:03:13.381Z,13.68
2023-03-12T01:05:40.791Z,12.50
2023-03-12T01:08:08.841Z,12.25
2023-03-12T01:10:37.107Z,11.38
2023-03-12T01:13:03.720Z,11.02
2023-03-12T01:15:30.298Z,10.13
2023-03-12T01:17:56.977Z,11.90
2023-03-12T01:20:23.829Z,10.82
2023-03-12T01:22:51.233Z,10.65
2023-03-12T01:25:18.250Z,11.18
2023-03-12T01:27:45.251Z,11.98
2023-03-12T01:30:12.655Z,11.25
2023-03-12T01:32:39.245Z,9.57
2023-03-12T01:35:06.883Z,11.57
2023-03-12T01:37:33.913Z,11.73
2023-03-12T01:40:00.807Z,10.32
2023-03-12T01:42:27.402Z,10.70
2023-03-12T01:44:57.227Z,10.15
2023-03-12T01:47:25.102Z,10.98
2023-03-12T01:49:54.249Z,10.00
2023-03-12T01:52:30.718Z,10.00
2023-03-12T01:55:14.867Z,10.73
2023-03-12T01:57:48.307Z,10.38
2023-03-12T02:00:24.132Z,11.27
2023-03-12T02:02:52.288Z,11.40
2023-03-12T02:05:34.257Z,10.55
2023-03-12T02:08:00.893Z,9.95
2023-03-12T02:10:27.575Z,9.73
2023-03-12T02:12:54.290Z,10.25
2023-03-12T02:15:21.063Z,9.68
2023-03-12T02:17:47.633Z,8.75
2023-03-12T02:20:22.424Z,9.13
2023-03-12T02:23:04.065Z,8.90
2023-03-12T02:25:38.494Z,9.50
2023-03-12T02:28:08.746Z,9.43
2023-03-12T02:30:36.695Z,8.82
2023-03-12T02:33:07.402Z,10.15
2023-03-12T02:35:35.053Z,9.45
2023-03-12T02:38:02.163Z,9.98
2023-03-12T02:40:37.582Z,9.85
2023-03-12T02:43:06.741Z,9.15
2023-03-12T02:45:35.603Z,9.13
2023-03-12T02:48:03.064Z,9.88
2023-03-12T02:50:29.665Z,9.40
2023-03-12T02:52:56.255Z,9.48
2023-03-12T02:55:22.837Z,9.27
2023-03-12T02:57:49.419Z,8.63
2023-03-12T03:00:16.806Z,7.60
2023-03-12T03:02:43.649Z,9.20
2023-03-12T03:05:12.043Z,9.20
2023-03-12T03:07:39.036Z,9.27
2023-03-12T03:10:06.660Z,8.55
2023-03-12T03:12:34.884Z,8.95
2023-03-12T03:15:01.670Z,8.30
2023-03-12T03:17:28.653Z,8.18
2023-03-12T03:19:55.358Z,9.40
2023-03-12T03:22:22.785Z,8.35
2023-03-12T03:24:49.865Z,9.02
2023-03-12T03:27:16.438Z,8.77
2023-03-12T03:29:45.084Z,9.10
2023-03-12T03:32:11.921Z,9.63
2023-03-12T03:34:39.149Z,10.85
2023-03-12T03:37:05.814Z,10.63
2023-03-12T03:39:32.841Z,10.18
2023-03-12T03:41:59.369Z,9.13
2023-03-12T03:44:25.994Z,8.30
2023-03-12T03:46:53.482Z,8.77
2023-03-12T03:49:20.262Z,9.20
2023-03-12T03:51:47.128Z,9.27
2023-03-12T03:54:13.704Z,9.13
2023-03-12T03:56:41.178Z,8.43
2023-03-12T03:59:07.789Z,8.10
2023-03-12T04:01:34.751Z,9.27
2023-03-12T04:04:01.388Z,8.60
2023-03-12T04:06:29.761Z,8.10
2023-03-12T04:08:57.909Z,8.55
2023-03-12T04:11:26.137Z,7.55
2023-03-12T04:13:52.916Z,8.05
2023-03-12T04:16:19.588Z,8.02
2023-03-12T04:18:46.178Z,7.57
2023-03-12T04:21:13.902Z,7.78
2023-03-12T04:23:41.092Z,7.65
2023-03-12T04:26:07.926Z,7.97
2023-03-12T04:28:35.458Z,8.15
2023-03-12T04:31:04.998Z,8.02
2023-03-12T04:33:35.477Z,8.13
2023-03-12T04:36:02.222Z,8.70
2023-03-12T04:38:28.818Z,8.13
2023-03-12T04:41:14.913Z,7.80
2023-03-12T04:43:41.989Z,7.57
2023-03-12T04:46:09.365Z,7.80
2023-03-12T04:48:36.539Z,7.45
2023-03-12T04:51:04.511Z,7.43
2023-03-12T04:53:31.217Z,7.15
2023-03-12T04:55:57.916Z,8.18
2023-03-12T04:58:24.489Z,7.13
2023-03-12T05:00:51.349Z,8.43
2023-03-12T05:03:18.420Z,7.82
2023-03-12T05:05:45.542Z,7.10
2023-03-12T05:08:12.150Z,7.68
2023-03-12T05:10:38.767Z,6.53
2023-03-12T05:13:13.653Z,6.85
2023-03-12T05:15:40.200Z,6.93
2023-03-12T05:18:06.736Z,6.82
2023-03-12T05:20:35.325Z,7.20
2023-03-12T05:23:01.894Z,6.60
2023-03-12T05:25:28.409Z,6.07
2023-03-12T05:27:56.115Z,6.75
2023-03-12T05:30:22.719Z,7.00
2023-03-12T05:32:49.325Z,6.25
2023-03-12T05:35:15.932Z,6.82
2023-03-12T05:37:42.887Z,6.40
2023-03-12T05:40:13.067Z,6.30
2023-03-12T05:42:39.722Z,6.78
2023-03-12T05:45:07.096Z,6.53
2023-03-12T05:47:33.681Z,6.15
2023-03-12T05:50:00.233Z,7.18
2023-03-12T05:52:26.878Z,6.65
2023-03-12T05:54:53.620Z,5.90
2023-03-12T05:57:20.296Z,7.05
2023-03-12T05:59:46.863Z,6.43
2023-03-12T06:02:13.475Z,6.35
2023-03-12T06:04:39.993Z,6.93
2023-03-12T06:07:06.739Z,6.80
2023-03-12T06:09:33.268Z,7.00
2023-03-12T06:11:59.857Z,7.00
2023-03-12T06:14:26.457Z,6.25
2023-03-12T06:16:53.101Z,6.40
2023-03-12T06:19:19.721Z,6.40
2023-03-12T06:21:46.254Z,6.32
2023-03-12T06:24:12.920Z,6.57
2023-03-12T06:26:40.497Z,6.68
2023-03-12T06:29:07.262Z,6.78
2023-03-12T06:31:34.976Z,8.07
2023-03-12T06:34:03.333Z,6.65
2023-03-12T06:36:29.918Z,7.13
2023-03-12T06:38:57.334Z,7.07
2023-03-12T06:41:24.046Z,5.45
2023-03-12T06:43:50.870Z,7.93
2023-03-12T06:46:21.622Z,5.70
2023-03-12T06:48:48.779Z,5.65
2023-03-12T06:51:16.452Z,4.80
2023-03-12T06:53:43.309Z,5.50
2023-03-12T06:56:10.680Z,8.63
2023-03-12T06:58:37.397Z,5.03
2023-03-12T07:01:04.636Z,5.07
2023-03-12T07:03:31.450Z,5.03
2023-03-12T07:05:58.535Z,4.90
2023-03-12T07:08:26.108Z,5.50
2023-03-12T07:10:52.598Z,5.20
2023-03-12T07:13:19.192Z,5.22
2023-03-12T07:15:46.501Z,6.60
2023-03-12T07:18:13.351Z,5.47
2023-03-12T07:20:42.719Z,5.18
2023-03-12T07:23:10.055Z,4.68
2023-03-12T07:25:41.539Z,4.93
2023-03-12T07:28:09.299Z,5.30
2023-03-12T07:30:36.407Z,4.88
2023-03-12T07:33:08.200Z,3.90
2023-03-12T07:35:35.533Z,3.88
2023-03-12T07:38:02.942Z,5.03
2023-03-12T07:40:29.551Z,4.20
2023-03-12T07:42:56.867Z,4.00
2023-03-12T07:45:24.273Z,3.40
2023-03-12T07:47:51.701Z,4.20
2023-03-12T07:50:19.330Z,3.78
2023-03-12T07:52:46.898Z,4.03
2023-03-12T07:55:13.807Z,3.40
2023-03-12T07:57:40.474Z,3.03
2023-03-12T08:00:08.810Z,3.08
2023-03-12T08:02:36.150Z,3.50
2023-03-12T08:05:03.057Z,3.10
2023-03-12T08:07:32.432Z,4.07
2023-03-12T08:09:59.934Z,3.60
2023-03-12T08:12:27.086Z,3.45
2023-03-12T08:14:54.772Z,4.00
2023-03-12T08:17:21.839Z,3.65
2023-03-12T08:19:48.452Z,4.40
2023-03-12T08:22:14.984Z,4.55
2023-03-12T08:24:41.906Z,4.03
2023-03-12T08:27:08.762Z,4.35
2023-03-12T08:29:35.360Z,3.97
2023-03-12T08:32:05.207Z,4.22
2023-03-12T08:34:33.929Z,4.53
2023-03-12T08:37:01.045Z,5.28
2023-03-12T08:39:28.612Z,4.80
2023-03-12T08:41:55.499Z,5.40
2023-03-12T08:44:26.143Z,5.25
2023-03-12T08:46:53.064Z,5.60
2023-03-12T08:49:20.984Z,6.68
2023-03-12T08:51:47.937Z,5.47
2023-03-12T08:54:14.926Z,5.95
2023-03-12T08:56:44.583Z,5.70
2023-03-12T08:59:11.721Z,5.80
2023-03-12T09:01:38.685Z,5.53
2023-03-12T09:04:06.252Z,6.07
2023-03-12T09:06:35.236Z,5.50
2023-03-12T09:09:05.450Z,6.13
2023-03-12T09:11:33.777Z,6.18
2023-03-12T09:16:48.351Z,14.13
2023-03-12T09:19:15.108Z,7.95
2023-03-12T09:21:44.113Z,5.85
2023-03-12T09:24:11.610Z,7.47
2023-03-12T09:26:38.103Z,7.95
2023-03-12T09:29:04.780Z,7.88
2023-03-12T09:31:31.437Z,7.18
2023-03-12T09:33:57.954Z,8.40
2023-03-12T09:36:24.514Z,9.13
2023-03-12T09:38:51.011Z,10.05
2023-03-12T09:41:27.669Z,10.45
2023-03-12T09:44:03.076Z,11.02
2023-03-12T09:46:36.921Z,12.70
2023-03-12T09:49:10.665Z,12.02
2023-03-12T09:51:47.170Z,12.13
2023-03-12T09:54:29.734Z,12.95
2023-03-12T09:57:05.290Z,12.88
2023-03-12T09:59:32.344Z,13.70
2023-03-12T10:02:02.803Z,31.10
2023-03-12T10:04:56.626Z,19.60
2023-03-12T10:07:34.050Z,16.00
2023-03-12T10:10:17.094Z,16.83
2023-03-12T10:12:59.070Z,15.68
2023-03-12T10:15:45.261Z,14.50
2023-03-12T10:18:27.537Z,16.77
2023-03-12T10:21:35.151Z,16.88
2023-03-12T10:24:16.392Z,15.50
2023-03-12T10:26:45.692Z,17.65
2023-03-12T10:29:45.510Z,23.92
2023-03-12T10:32:12.085Z,23.98
2023-03-12T10:34:54.307Z,23.42
2023-03-12T10:37:44.107Z,21.45
2023-03-12T10:40:22.447Z,21.63
2023-03-12T10:42:49.619Z,20.90
2023-03-12T10:45:46.639Z,22.05
2023-03-12T10:48:21.693Z,21.35
2023-03-12T10:51:07.014Z,22.80
2023-03-12T10:53:41.281Z,20.80
2023-03-12T10:56:10.615Z,20.85
2023-03-12T10:59:01.549Z,21.67
2023-03-12T11:01:32.640Z,21.80
2023-03-12T11:04:16.531Z,21.88
2023-03-12T11:06:43.629Z,20.27
2023-03-12T11:09:17.282Z,22.77
2023-03-12T11:11:48.566Z,22.15
2023-03-12T11:14:26.901Z,23.35
2023-03-12T11:16:54.945Z,22.58
2023-03-12T11:19:40.622Z,22.02
2023-03-12T11:22:13.815Z,20.60
2023-03-12T11:24:56.813Z,23.38
2023-03-12T11:27:38.595Z,23.00
2023-03-12T11:30:09.924Z,22.00
2023-03-12T11:32:40.992Z,20.63
2023-03-12T11:35:12.542Z,23.42
2023-03-12T11:37:56.305Z,21.75
2023-03-12T11:40:38.085Z,22.33
2023-03-12T11:43:39.986Z,21.75
2023-03-12T11:46:59.094Z,20.30
2023-03-12T11:49:58.573Z,22.10
2023-03-12T11:52:52.949Z,19.95
2023-03-12T11:55:43.969Z,20.77
2023-03-12T11:58:22.411Z,21.15
2023-03-12T12:01:05.812Z,21.90
2023-03-12T12:03:51.812Z,20.67
2023-03-12T12:06:36.864Z,19.45
2023-03-12T12:09:26.230Z,19.25
2023-03-12T12:12:16.842Z,17.95
2023-03-12T12:15:31.465Z,19.73
2023-03-12T12:18:21.201Z,19.58
2023-03-12T12:21:01.308Z,18.95
2023-03-12T12:23:33.825Z,19.85
2023-03-12T12:29:17.401Z,17.88
2023-03-12T12:32:15.295Z,20.20
2023-03-12T12:35:09.330Z,19.30
2023-03-12T12:37:54.388Z,17.83
2023-03-12T12:40:41.453Z,18.58
2023-03-12T12:43:23.929Z,19.65
2023-03-12T12:45:52.898Z,18.63
2023-03-12T12:48:32.122Z,19.83
2023-03-12T12:51:00.874Z,19.08
2023-03-12T12:53:37.612Z,18.02
2023-03-12T12:56:23.017Z,18.08
2023-03-12T12:59:10.881Z,17.38
2023-03-12T13:01:38.368Z,16.20
2023-03-12T13:04:24.883Z,16.77
2023-03-12T13:06:57.857Z,17.55
2023-03-12T13:09:36.983Z,15.30
2023-03-12T13:12:11.769Z,13.27
2023-03-12T13:14:41.729Z,14.77
2023-03-12T13:17:21.408Z,16.55
2023-03-12T13:19:55.541Z,15.50
2023-03-12T13:23:17.128Z,15.90
2023-03-12T13:25:57.145Z,14.63
2023-03-12T13:28:30.066Z,15.10
2023-03-12T13:30:58.541Z,14.65
2023-03-12T13:33:48.172Z,14.73
2023-03-12T13:36:23.125Z,15.48
2023-03-12T13:39:17.347Z,15.45
2023-03-12T13:41:52.124Z,15.48
2023-03-12T13:44:28.887Z,20.48
2023-03-12T13:47:04.814Z,16.85
2023-03-12T13:49:40.748Z,15.93
2023-03-12T13:52:27.693Z,15.98
2023-03-12T13:55:16.198Z,15.40
2023-03-12T13:57:49.610Z,15.10
2023-03-12T14:00:28.674Z,15.77
2023-03-12T14:03:01.065Z,14.90
2023-03-12T14:05:29.066Z,15.38
2023-03-12T14:08:17.603Z,15.38
2023-03-12T14:11:17.953Z,14.32
2023-03-12T14:13:53.597Z,16.30
2023-03-12T14:16:30.776Z,13.55
2023-03-12T14:18:57.903Z,16.17
2023-03-12T14:21:33.285Z,15.02
2023-03-12T14:24:00.550Z,15.90
2023-03-12T14:26:31.512Z,15.57
2023-03-12T14:29:41.854Z,14.45
2023-03-12T14:32:22.678Z,15.15
2023-03-12T14:35:11.236Z,15.27
2023-03-12T14:37:44.858Z,14.35
2023-03-12T14:40:26.701Z,15.52
2023-03-12T14:42:53.392Z,16.35
2023-03-12T14:45:23.101Z,16.92
2023-03-12T14:47:57.816Z,15.27
2023-03-12T14:50:30.963Z,14.57
2023-03-12T14:53:12.354Z,15.05
2023-03-12T14:55:38.982Z,14.88
2023-03-12T14:58:14.539Z,14.55
2023-03-12T15:00:43.591Z,15.98
2023-03-12T15:03:15.835Z,14.68
2023-03-12T15:05:50.023Z,14.55
2023-03-12T15:08:17.603Z,14.63
2023-03-12T15:10:50.068Z,14.15
2023-03-12T15:15:47.132Z,14.25
2023-03-12T15:18:17.571Z,14.82
2023-03-12T15:20:45.578Z,18.33
2023-03-12T15:23:13.687Z,14.95
2023-03-12T15:25:42.466Z,13.23
2023-03-12T15:28:15.225Z,17.05
2023-03-12T15:30:43.568Z,14.25
2023-03-12T15:33:10.185Z,14.98
2023-03-12T15:35:40.051Z,15.60
2023-03-12T15:38:14.990Z,14.32
2023-03-12T15:40:42.047Z,14.35
2023-03-12T15:43:19.449Z,40.92
2023-03-12T15:45:46.732Z,15.48
2023-03-12T15:48:26.838Z,23.73
2023-03-12T15:50:53.577Z,20.42
2023-03-12T15:53:20.214Z,17.55
2023-03-12T15:56:05.754Z,16.75
2023-03-12T15:58:34.993Z,14.40
2023-03-12T16:01:16.374Z,15.00
2023-03-12T16:03:45.489Z,15.32
2023-03-12T16:06:17.517Z,14.70
2023-03-12T16:08:52.932Z,14.38
2023-03-12T16:11:22.670Z,14.57
2023-03-12T16:13:52.007Z,14.77
2023-03-12T16:16:18.662Z,15.18
2023-03-12T16:18:45.312Z,13.77
2023-03-12T16:21:14.518Z,12.70
2023-03-12T16:23:41.126Z,14.77
2023-03-12T16:26:07.833Z,13.88
2023-03-12T16:28:40.155Z,12.82
2023-03-12T16:31:16.553Z,13.38
2023-03-12T16:33:54.658Z,14.60
2023-03-12T16:36:24.044Z,14.88
2023-03-12T16:38:57.947Z,14.45
2023-03-12T16:41:30.542Z,14.48
2023-03-12T16:44:01.910Z,13.57
2023-03-12T16:46:36.194Z,14.85
2023-03-12T16:49:04.183Z,14.60
2023-03-12T16:51:30.819Z,14.65
2023-03-12T16:54:10.856Z,17.00
2023-03-12T16:56:50.973Z,16.50
2023-03-12T16:59:33.287Z,16.50
2023-03-12T17:01:59.942Z,21.52
2023-03-12T17:04:26.563Z,17.90
2023-03-12T17:06:53.103Z,16.95
2023-03-12T17:09:19.905Z,15.88
2023-03-12T17:11:49.874Z,16.75
2023-03-12T17:14:22.322Z,16.08
2023-03-12T17:16:49.206Z,17.92
2023-03-12T17:19:16.032Z,18.30
2023-03-12T17:21:43.395Z,23.17
2023-03-12T17:24:14.088Z,16.33
2023-03-12T17:26:42.162Z,15.02
2023-03-12T17:29:08.852Z,16.48
2023-03-12T17:31:37.513Z,15.73
2023-03-12T17:34:04.605Z,16.20
2023-03-12T17:36:31.217Z,15.15
2023-03-12T17:38:57.874Z,14.82
2023-03-12T17:41:26.759Z,13.38
2023-03-12T17:43:54.859Z,13.60
2023-03-12T17:46:21.862Z,12.85
2023-03-12T17:48:48.515Z,13.45
2023-03-12T17:51:15.023Z,16.35
2023-03-12T17:53:41.871Z,13.90
2023-03-12T17:56:09.174Z,12.10
2023-03-12T17:58:35.980Z,12.13
2023-03-12T18:01:02.653Z,11.77
2023-03-12T18:03:29.404Z,10.85
2023-03-12T18:05:56.139Z,10.52
2023-03-12T18:08:22.736Z,11.10
2023-03-12T18:10:49.409Z,9.85
2023-03-12T18:13:16.248Z,8.93
2023-03-12T18:15:42.834Z,8.73
2023-03-12T18:18:09.555Z,7.13
2023-03-12T18:20:39.717Z,7.05
2023-03-12T18:23:07.043Z,7.20
2023-03-12T18:25:33.689Z,5.85
2023-03-12T18:28:00.294Z,6.28
2023-03-12T18:30:28.160Z,5.63
2023-03-12T18:32:54.919Z,5.47
2023-03-12T18:35:22.738Z,5.07
2023-03-12T18:37:51.829Z,7.68
2023-03-12T18:40:18.667Z,7.47
2023-03-12T18:42:45.276Z,6.97
2023-03-12T18:45:12.503Z,4.10
2023-03-12T18:47:39.515Z,3.80
2023-03-12T18:50:10.167Z,3.75
2023-03-12T18:52:36.836Z,4.28
2023-03-12T18:55:04.447Z,3.20
2023-03-12T18:57:31.804Z,4.35
2023-03-12T18:59:59.338Z,3.92
2023-03-12T19:02:26.194Z,4.25
2023-03-12T19:04:55.858Z,2.85
2023-03-12T19:07:23.147Z,3.22
2023-03-12T19:09:50.244Z,2.75
2023-03-12T19:12:16.791Z,3.65
2023-03-12T19:14:43.379Z,3.28
2023-03-12T19:17:09.949Z,2.90
2023-03-12T19:19:36.534Z,2.80
2023-03-12T19:22:04.548Z,3.28
2023-03-12T19:24:31.711Z,3.95
2023-03-12T19:26:58.515Z,2.50
2023-03-12T19:29:25.238Z,3.05
2023-03-12T19:31:51.878Z,3.75
2023-03-12T19:34:20.902Z,3.00
2023-03-12T19:36:47.464Z,3.15
2023-03-12T19:39:21.133Z,4.45
2023-03-12T19:41:48.308Z,2.90
2023-03-12T19:44:14.938Z,4.05
2023-03-12T19:46:43.154Z,4.05
2023-03-12T19:49:09.790Z,4.43
2023-03-12T19:51:36.347Z,3.38
2023-03-12T19:54:02.958Z,3.53
2023-03-12T19:56:29.546Z,3.55
2023-03-12T19:58:56.188Z,4.90
2023-03-12T20:01:23.013Z,3.65
2023-03-12T20:03:49.652Z,4.05
2023-03-12T20:06:19.157Z,3.65
2023-03-12T20:08:45.730Z,3.78
2023-03-12T20:11:12.508Z,2.80
2023-03-12T20:13:39.277Z,2.85
2023-03-12T20:16:07.576Z,3.05
2023-03-12T20:18:34.516Z,3.97
2023-03-12T20:21:01.184Z,3.25
2023-03-12T20:23:27.751Z,4.03
2023-03-12T20:25:54.406Z,3.05
2023-03-12T20:28:20.998Z,3.42
2023-03-12T20:30:48.521Z,3.80
2023-03-12T20:33:15.207Z,2.78
2023-03-12T20:35:41.797Z,3.58
2023-03-12T20:38:08.563Z,3.85
2023-03-12T20:40:35.290Z,4.55
2023-03-12T20:43:05.120Z,3.28
2023-03-12T20:45:33.381Z,3.28
2023-03-12T20:48:00.750Z,3.47
2023-03-12T20:50:28.268Z,4.45
2023-03-12T20:52:54.917Z,3.30
2023-03-12T20:55:21.835Z,4.47
2023-03-12T20:57:48.746Z,3.30
2023-03-12T21:00:16.075Z,4.03
2023-03-12T21:02:42.635Z,5.10
2023-03-12T21:05:11.416Z,3.90
2023-03-12T21:07:38.070Z,3.10
2023-03-12T21:10:05.229Z,3.70
2023-03-12T21:12:31.783Z,3.15
2023-03-12T21:15:06.260Z,3.75
2023-03-12T21:17:33.979Z,4.18
2023-03-12T21:20:01.729Z,3.28
2023-03-12T21:22:30.484Z,3.47
2023-03-12T21:24:57.663Z,2.72
2023-03-12T21:27:24.450Z,4.38
2023-03-12T21:29:52.683Z,3.28
2023-03-12T21:32:20.808Z,3.40
2023-03-12T21:34:48.030Z,3.08
2023-03-12T21:37:15.773Z,4.07
2023-03-12T21:39:43.089Z,4.80
2023-03-12T21:42:09.669Z,3.63
2023-03-12T21:44:37.105Z,3.40
2023-03-12T21:47:06.634Z,4.55
2023-03-12T21:49:34.696Z,3.85
2023-03-12T21:52:02.315Z,2.78
2023-03-12T21:54:38.236Z,2.88
2023-03-12T21:57:05.216Z,3.40
2023-03-12T21:59:32.408Z,2.97
2023-03-12T22:01:59.443Z,3.45
2023-03-12T22:04:26.192Z,2.38
2023-03-12T22:06:52.740Z,4.40
2023-03-12T22:09:19.376Z,4.05
2023-03-12T22:11:45.921Z,3.33
2023-03-12T22:14:15.517Z,4.72
2023-03-12T22:16:42.000Z,4.07
2023-03-12T22:19:09.177Z,4.15
2023-03-12T22:21:35.776Z,4.40
2023-03-12T22:24:02.402Z,3.00
2023-03-12T22:26:29.271Z,3.45
2023-03-12T22:28:57.668Z,3.13
2023-03-12T22:31:26.739Z,3.03
2023-03-12T22:33:53.468Z,4.43
2023-03-12T22:36:21.250Z,3.50
2023-03-12T22:38:48.013Z,3.63
2023-03-12T22:41:23.300Z,3.22
2023-03-12T22:43:51.667Z,2.85
2023-03-12T22:46:19.921Z,3.22
2023-03-12T22:48:48.453Z,4.13
2023-03-12T22:51:15.046Z,4.05
2023-03-12T22:53:41.645Z,3.08
2023-03-12T22:56:11.209Z,4.20
2023-03-12T22:58:37.897Z,2.83
2023-03-12T23:01:07.166Z,3.40
2023-03-12T23:03:35.094Z,3.88
2023-03-12T23:06:03.086Z,3.80
2023-03-12T23:08:30.331Z,4.07
2023-03-12T23:11:02.490Z,3.17
2023-03-12T23:13:31.632Z,3.78
2023-03-12T23:16:10.146Z,3.42
2023-03-12T23:18:37.193Z,3.00
2023-03-12T23:21:06.546Z,3.10
2023-03-12T23:23:33.983Z,2.80
2023-03-12T23:26:00.908Z,3.85
2023-03-12T23:28:29.055Z,3.47
2023-03-12T23:31:01.337Z,3.50
2023-03-12T23:33:29.369Z,4.05
2023-03-12T23:36:01.555Z,6.75
2023-03-12T23:38:29.330Z,3.97
2023-03-12T23:41:00.790Z,3.22
2023-03-12T23:43:27.730Z,4.60
2023-03-12T23:45:58.827Z,3.35
2023-03-12T23:48:27.370Z,3.70
2023-03-12T23:50:54.540Z,2.75
2023-03-12T23:53:21.158Z,2.90
2023-03-12T23:55:58.382Z,2.95
2023-03-12T23:58:25.443Z,4.55
